createdAt,value
2024-02-29T00:07:25.716Z,100.00
2024-02-29T00:17:26.688Z,100.00
2024-02-29T00:27:26.965Z,100.00
2024-02-29T00:37:27.589Z,100.00
2024-02-29T00:47:28.181Z,100.00
2024-02-29T00:57:28.721Z,100.00
2024-02-29T01:07:29.310Z,100.00
2024-02-29T01:17:29.883Z,100.00
2024-02-29T01:27:30.629Z,100.00
2024-02-29T01:37:31.077Z,100.00
2024-02-29T01:47:31.713Z,100.00
2024-02-29T01:57:32.278Z,100.00
2024-02-29T02:07:32.631Z,100.00
2024-02-29T02:17:33.680Z,100.00
2024-02-29T02:27:33.809Z,100.00
2024-02-29T02:37:34.305Z,100.00
2024-02-29T02:47:34.914Z,100.00
2024-02-29T02:57:35.546Z,100.00
2024-02-29T03:07:36.047Z,100.00
2024-02-29T03:17:36.655Z,100.00
2024-02-29T03:27:37.135Z,100.00
2024-02-29T03:37:37.774Z,100.00
2024-02-29T03:47:38.245Z,100.00
2024-02-29T03:57:38.822Z,100.00
2024-02-29T04:07:39.392Z,100.00
2024-02-29T04:17:39.998Z,100.00
2024-02-29T04:27:40.845Z,100.00
2024-02-29T04:37:41.113Z,100.00
2024-02-29T04:47:41.716Z,100.00
2024-02-29T04:57:42.284Z,100.00
2024-02-29T05:07:42.805Z,100.00
2024-02-29T05:17:43.400Z,100.00
2024-02-29T05:27:44.044Z,100.00
2024-02-29T05:37:44.505Z,100.00
2024-02-29T05:47:45.040Z,100.00
2024-02-29T05:57:45.662Z,100.00
2024-02-29T06:07:46.156Z,100.00
2024-02-29T06:17:47.041Z,100.00
2024-02-29T06:27:47.359Z,100.00
2024-02-29T06:37:47.949Z,100.00
2024-02-29T06:47:48.627Z,100.00
2024-02-29T06:57:49.461Z,100.00
2024-02-29T07:07:49.984Z,100.00
2024-02-29T07:17:50.733Z,100.00
2024-02-29T07:27:51.589Z,100.00
2024-02-29T07:37:54.709Z,100.00
2024-02-29T07:47:52.594Z,100.00
2024-02-29T07:57:53.332Z,100.00
2024-02-29T08:07:53.956Z,100.00
2024-02-29T08:17:54.801Z,100.00
2024-02-29T08:27:55.716Z,99.34
2024-02-29T08:37:57.986Z,97.06
2024-02-29T08:47:57.183Z,94.16
2024-02-29T08:57:57.946Z,92.23
2024-02-29T09:07:58.926Z,89.23
2024-02-29T09:17:59.898Z,85.83
2024-02-29T09:28:00.830Z,82.99
2024-02-29T09:38:02.017Z,82.98
2024-02-29T09:48:02.936Z,79.04
2024-02-29T09:58:04.082Z,78.36
2024-02-29T10:08:07.028Z,73.14
2024-02-29T10:18:06.446Z,69.80
2024-02-29T10:28:07.956Z,68.95
2024-02-29T10:38:09.097Z,67.21
2024-02-29T10:48:10.351Z,63.04
2024-02-29T10:58:11.544Z,63.06
2024-02-29T11:08:12.708Z,60.76
2024-02-29T11:18:14.075Z,61.45
2024-02-29T11:28:15.353Z,60.37
2024-02-29T11:48:17.863Z,59.38
2024-02-29T11:58:19.329Z,58.79
2024-02-29T12:08:20.453Z,58.67
2024-02-29T12:18:21.828Z,57.95
2024-02-29T12:28:23.285Z,58.05
2024-02-29T12:38:24.519Z,55.10
2024-02-29T12:48:25.922Z,54.57
2024-02-29T12:58:27.564Z,54.52
2024-02-29T13:08:28.596Z,52.45
2024-02-29T13:18:29.948Z,53.15
2024-02-29T13:28:31.253Z,53.57
2024-02-29T13:38:32.841Z,54.36
2024-02-29T13:48:34.060Z,54.67
2024-02-29T13:58:35.206Z,54.47
2024-02-29T14:08:36.751Z,56.57
2024-02-29T14:18:37.967Z,57.60
2024-02-29T14:28:39.182Z,58.52
2024-02-29T14:38:40.665Z,59.95
2024-02-29T14:48:42.200Z,60.50
2024-02-29T14:58:43.186Z,61.39
2024-02-29T15:08:44.442Z,60.57
2024-02-29T15:18:45.846Z,60.73
2024-02-29T15:28:47.321Z,61.13
2024-02-29T15:38:48.485Z,61.57
2024-02-29T15:48:49.566Z,61.40
2024-02-29T15:58:50.855Z,61.95
2024-02-29T16:08:52.104Z,62.38
2024-02-29T16:18:53.310Z,62.68
2024-02-29T16:28:54.396Z,62.91
2024-02-29T16:38:55.596Z,63.65
2024-02-29T16:48:56.790Z,64.79
2024-02-29T16:58:57.972Z,66.12
2024-02-29T17:08:59.171Z,66.93
2024-02-29T17:19:00.650Z,67.66
2024-02-29T17:29:01.981Z,67.64
2024-02-29T17:39:02.677Z,67.28
2024-02-29T17:49:03.854Z,66.75
2024-02-29T17:59:04.980Z,66.77
2024-02-29T18:09:06.033Z,67.18
2024-02-29T18:19:07.110Z,67.73
2024-02-29T18:29:07.987Z,68.65
2024-02-29T18:39:11.277Z,69.97
2024-02-29T18:49:09.928Z,71.00
2024-02-29T18:59:11.221Z,72.07
2024-02-29T19:09:12.158Z,74.33
2024-02-29T19:19:13.365Z,75.00
2024-02-29T19:29:14.051Z,76.28
2024-02-29T19:39:15.137Z,76.75
2024-02-29T19:49:16.146Z,77.15
2024-02-29T19:59:17.070Z,77.49
2024-02-29T20:09:18.166Z,78.27
2024-02-29T20:19:19.165Z,78.55
2024-02-29T20:29:20.187Z,77.56
2024-02-29T20:39:21.393Z,77.81
2024-02-29T20:49:22.175Z,78.62
2024-02-29T20:59:25.339Z,80.17
2024-02-29T21:09:24.047Z,80.55
2024-02-29T21:19:25.272Z,80.56
2024-02-29T21:29:25.942Z,80.43
2024-02-29T21:39:35.872Z,81.79
2024-02-29T21:49:27.997Z,81.39
2024-02-29T21:59:28.756Z,82.15
2024-02-29T22:09:29.741Z,82.90
2024-02-29T22:19:30.744Z,84.04
2024-02-29T22:29:31.815Z,85.07
2024-02-29T22:39:32.753Z,85.70
2024-02-29T22:49:33.653Z,86.70
2024-02-29T22:59:34.507Z,87.24
2024-02-29T23:09:35.059Z,87.95
2024-02-29T23:19:35.873Z,88.32
2024-02-29T23:29:36.653Z,88.23
2024-02-29T23:39:37.471Z,88.52
2024-02-29T23:49:38.648Z,88.67
2024-02-29T23:59:39.248Z,88.44
